Time;durP1;ratioP1;P1;durP2;ratioP2;P2;SDS_P1;SDS_P2;PMS_P1;PMS_P2;Temp;Humidity;BMP_temperature;BMP_pressure;BME280_temperature;BME280_humidity;BME280_pressure;Samples;Min_cycle;Max_cycle;Signal;HPM_P1;HPM_P2
2022/04/14 00:00:20;;;;;;;12.55;7.68;;;11.10;99.90;;;;;;4997516;28;20049;-86
2022/04/14 00:02:46;;;;;;;13.05;7.45;;;11.10;99.90;;;;;;4997590;28;20041;-86
2022/04/14 00:05:11;;;;;;;12.93;7.68;;;11.00;99.90;;;;;;5014463;28;20041;-87
2022/04/14 00:07:37;;;;;;;12.60;7.53;;;11.00;99.90;;;;;;4981087;28;20042;-86
2022/04/14 00:10:04;;;;;;;13.00;7.70;;;11.00;99.90;;;;;;5013549;28;20053;-86
2022/04/14 00:12:30;;;;;;;13.70;7.38;;;11.00;99.90;;;;;;4997464;28;20042;-87
2022/04/14 00:14:55;;;;;;;10.45;6.85;;;10.90;99.90;;;;;;5013660;28;20067;-86
2022/04/14 00:17:21;;;;;;;14.55;8.13;;;10.90;99.90;;;;;;4980803;28;20041;-85
2022/04/14 00:19:47;;;;;;;13.68;7.18;;;10.80;99.90;;;;;;4980848;28;20363;-86
2022/04/14 00:22:12;;;;;;;15.20;8.52;;;10.70;99.90;;;;;;4997248;28;20045;-86
2022/04/14 00:24:38;;;;;;;16.48;8.70;;;10.70;99.90;;;;;;4997022;28;20290;-85
2022/04/14 00:27:04;;;;;;;15.45;8.70;;;10.60;99.90;;;;;;4980357;28;20478;-83
2022/04/14 00:29:30;;;;;;;14.73;9.52;;;10.70;99.90;;;;;;4980760;28;20107;-83
2022/04/14 00:31:55;;;;;;;16.42;9.30;;;10.70;99.90;;;;;;4997037;28;20140;-83
2022/04/14 00:34:21;;;;;;;13.45;9.52;;;10.80;99.90;;;;;;4996886;28;20126;-82
2022/04/14 00:36:47;;;;;;;16.02;9.07;;;10.90;99.90;;;;;;4997249;28;20046;-83
2022/04/14 00:39:13;;;;;;;13.35;8.57;;;10.90;99.90;;;;;;5012843;28;20395;-85
2022/04/14 00:41:38;;;;;;;15.48;9.23;;;10.90;99.90;;;;;;4996832;28;20188;-84
2022/04/14 00:44:05;;;;;;;16.85;9.15;;;10.90;99.90;;;;;;5013240;28;20046;-84
2022/04/14 00:46:31;;;;;;;14.27;8.75;;;10.90;99.90;;;;;;4980400;28;20076;-86
2022/04/14 00:48:57;;;;;;;15.52;9.32;;;10.90;99.90;;;;;;5013813;28;20048;-85
2022/04/14 00:51:23;;;;;;;14.23;8.77;;;10.80;99.90;;;;;;4995950;28;20057;-86
2022/04/14 00:53:49;;;;;;;18.17;9.27;;;10.80;99.90;;;;;;5013135;28;20124;-86
2022/04/14 00:56:15;;;;;;;14.38;8.23;;;10.70;99.90;;;;;;4980374;28;20116;-85
2022/04/14 00:58:41;;;;;;;15.75;8.43;;;10.60;99.90;;;;;;5012161;28;20092;-86
2022/04/14 01:01:07;;;;;;;16.02;9.27;;;10.60;99.90;;;;;;5013630;28;20046;-85
2022/04/14 01:03:36;;;;;;;12.63;8.23;;;10.60;99.90;;;;;;4996698;28;20441;-86
2022/04/14 01:06:05;;;;;;;16.83;8.73;;;10.60;99.90;;;;;;4996577;28;20042;-86
2022/04/14 01:08:32;;;;;;;14.18;8.00;;;10.60;99.90;;;;;;5013502;28;20376;-86
2022/04/14 01:10:59;;;;;;;17.08;9.10;;;10.50;99.90;;;;;;4996332;28;20042;-86
2022/04/14 01:13:25;;;;;;;13.57;8.48;;;10.60;99.90;;;;;;4996291;28;20093;-86
2022/04/14 01:15:59;;;;;;;15.20;9.77;;;10.50;99.90;;;;;;4979907;28;20057;-86
2022/04/14 01:18:26;;;;;;;15.57;10.63;;;10.40;99.90;;;;;;5013259;28;20374;-85
2022/04/14 01:20:52;;;;;;;15.07;9.57;;;10.40;99.90;;;;;;4996158;28;20045;-86
2022/04/14 01:23:54;;;;;;;16.48;9.30;;;10.40;99.90;;;;;;5012634;28;20121;-86
2022/04/14 01:26:21;;;;;;;15.85;9.90;;;10.30;99.90;;;;;;4992589;28;20065;-86
2022/04/14 01:28:46;;;;;;;16.67;10.23;;;10.20;99.90;;;;;;4996257;28;20050;-85
2022/04/14 01:31:12;;;;;;;17.00;10.15;;;10.20;99.90;;;;;;5012494;28;20100;-86
2022/04/14 01:33:37;;;;;;;17.45;10.25;;;10.20;99.90;;;;;;4996262;28;20038;-86
2022/04/14 01:36:03;;;;;;;17.40;10.57;;;10.10;99.90;;;;;;5012397;28;20133;-86
2022/04/14 01:38:29;;;;;;;17.85;10.13;;;10.10;99.90;;;;;;5012260;28;20046;-86
2022/04/14 01:40:55;;;;;;;15.90;10.35;;;10.10;99.90;;;;;;4996169;28;20077;-86
2022/04/14 01:43:20;;;;;;;18.42;10.60;;;10.10;99.90;;;;;;4979888;28;20133;-85
2022/04/14 01:45:50;;;;;;;18.90;11.07;;;10.00;99.90;;;;;;4963915;28;20077;-85
2022/04/14 01:48:17;;;;;;;21.30;11.32;;;10.00;99.90;;;;;;4997472;28;20470;-86
2022/04/14 01:50:43;;;;;;;16.38;10.07;;;10.00;99.90;;;;;;5012009;28;20111;-86
2022/04/14 01:53:08;;;;;;;19.00;11.45;;;10.00;99.90;;;;;;4996042;28;20089;-86
2022/04/14 01:55:34;;;;;;;17.65;10.73;;;10.00;99.90;;;;;;5012571;28;20088;-85
2022/04/14 01:58:00;;;;;;;19.30;11.60;;;9.90;99.90;;;;;;4995751;28;20486;-86
2022/04/14 02:00:25;;;;;;;19.00;11.70;;;10.00;99.90;;;;;;4995987;28;20053;-86
2022/04/14 02:02:51;;;;;;;19.67;11.00;;;10.00;99.90;;;;;;5012490;28;20463;-86
2022/04/14 02:05:17;;;;;;;18.55;12.13;;;10.00;99.90;;;;;;4999109;28;20050;-87
2022/04/14 02:07:43;;;;;;;18.92;11.20;;;9.90;99.90;;;;;;5000308;28;20053;-86
2022/04/14 02:10:08;;;;;;;17.83;10.60;;;9.90;99.90;;;;;;4983332;28;20046;-87
2022/04/14 02:12:34;;;;;;;21.27;12.57;;;9.80;99.90;;;;;;4983420;28;20046;-86
2022/04/14 02:15:00;;;;;;;20.33;12.02;;;9.80;99.90;;;;;;5016487;28;20050;-86
2022/04/14 02:17:26;;;;;;;19.90;11.48;;;9.80;99.90;;;;;;4999237;28;20495;-86
2022/04/14 02:19:52;;;;;;;20.80;12.00;;;9.70;99.90;;;;;;5015460;28;20554;-87
2022/04/14 02:22:18;;;;;;;20.35;12.25;;;9.70;99.90;;;;;;4983106;28;20057;-85
2022/04/14 02:24:44;;;;;;;21.45;12.07;;;9.60;99.90;;;;;;4999307;28;20050;-86
2022/04/14 02:27:10;;;;;;;20.73;13.13;;;9.60;99.90;;;;;;5015408;28;20581;-86
2022/04/14 02:29:36;;;;;;;19.73;12.93;;;9.50;99.90;;;;;;4999057;28;20108;-86
2022/04/14 02:32:01;;;;;;;23.35;13.85;;;9.60;99.90;;;;;;4999741;28;20050;-87
2022/04/14 02:34:27;;;;;;;22.90;13.70;;;9.60;99.90;;;;;;5015492;28;20042;-86
2022/04/14 02:36:54;;;;;;;21.10;12.85;;;9.60;99.90;;;;;;4998944;28;20068;-86
2022/04/14 02:39:20;;;;;;;22.60;13.98;;;9.60;99.90;;;;;;4999037;28;20442;-86
2022/04/14 02:41:46;;;;;;;24.05;14.63;;;9.60;99.90;;;;;;5015208;28;20115;-86
2022/04/14 02:44:11;;;;;;;27.65;15.65;;;9.60;99.90;;;;;;5015133;28;20512;-86
2022/04/14 02:46:37;;;;;;;26.02;15.98;;;9.60;99.90;;;;;;5015207;28;20387;-86
2022/04/14 02:49:03;;;;;;;27.52;15.68;;;9.70;99.90;;;;;;5014991;28;20181;-86
2022/04/14 02:51:28;;;;;;;26.58;14.93;;;9.70;99.90;;;;;;4982422;28;20061;-85
2022/04/14 02:53:55;;;;;;;27.48;15.00;;;9.70;99.90;;;;;;4999221;28;20132;-87
2022/04/14 02:56:21;;;;;;;25.95;15.57;;;9.70;99.90;;;;;;4983165;28;20050;-86
2022/04/14 02:58:47;;;;;;;23.15;14.38;;;9.70;99.90;;;;;;4982166;28;20390;-85
2022/04/14 03:01:13;;;;;;;27.42;14.70;;;9.70;99.90;;;;;;4998720;28;20054;-87
2022/04/14 03:03:39;;;;;;;23.75;13.57;;;9.80;99.90;;;;;;4982292;28;20056;-87
2022/04/14 03:06:05;;;;;;;26.55;15.48;;;9.70;99.90;;;;;;4998683;28;20053;-87
2022/04/14 03:08:31;;;;;;;25.83;14.52;;;9.60;99.90;;;;;;5014913;28;20069;-86
2022/04/14 03:10:57;;;;;;;26.73;15.45;;;9.70;99.90;;;;;;5014623;28;20120;-87
2022/04/14 03:13:23;;;;;;;24.05;14.93;;;9.60;99.90;;;;;;5014601;28;20050;-86
2022/04/14 03:15:50;;;;;;;29.08;17.00;;;9.60;99.90;;;;;;5014396;28;20050;-87
2022/04/14 03:18:16;;;;;;;24.70;15.35;;;9.70;99.90;;;;;;4966131;28;20475;-86
2022/04/14 03:20:42;;;;;;;25.73;15.35;;;9.60;99.90;;;;;;4998284;28;20057;-86
2022/04/14 03:23:08;;;;;;;23.70;15.40;;;9.60;99.90;;;;;;4998364;28;20037;-87
2022/04/14 03:25:33;;;;;;;26.40;15.90;;;9.60;99.90;;;;;;4997847;28;20129;-86
2022/04/14 03:27:59;;;;;;;29.17;16.80;;;9.50;99.90;;;;;;4997977;28;20056;-86
2022/04/14 03:30:25;;;;;;;29.83;17.88;;;9.50;99.90;;;;;;4998015;28;20046;-86
2022/04/14 03:32:50;;;;;;;30.73;16.23;;;9.50;99.90;;;;;;4997721;28;20561;-86
2022/04/14 03:35:16;;;;;;;29.75;16.88;;;9.50;99.90;;;;;;4966406;28;20081;-86
2022/04/14 03:37:43;;;;;;;29.60;17.77;;;9.40;99.90;;;;;;4997764;28;20474;-86
2022/04/14 03:40:09;;;;;;;28.70;16.58;;;9.40;99.90;;;;;;5014071;28;20132;-86
2022/04/14 03:42:35;;;;;;;27.65;17.55;;;9.40;99.90;;;;;;4997769;28;20054;-86
2022/04/14 03:45:05;;;;;;;28.20;16.15;;;9.40;99.90;;;;;;4981516;28;20085;-85
2022/04/14 03:47:31;;;;;;;27.25;15.80;;;9.40;99.90;;;;;;4997352;28;20052;-86
2022/04/14 03:49:57;;;;;;;27.00;16.40;;;9.40;99.90;;;;;;4997250;28;20041;-86
2022/04/14 03:52:23;;;;;;;26.90;17.45;;;9.40;99.90;;;;;;5013470;28;20046;-86
2022/04/14 03:54:48;;;;;;;32.03;17.00;;;9.40;99.90;;;;;;4998213;28;20046;-86
2022/04/14 03:57:14;;;;;;;27.23;15.77;;;9.40;99.90;;;;;;5013898;28;20505;-87
2022/04/14 03:59:40;;;;;;;27.67;16.67;;;9.40;99.90;;;;;;5013613;28;20054;-85
2022/04/14 04:02:06;;;;;;;26.13;16.85;;;9.40;99.90;;;;;;4997356;28;20630;-85
2022/04/14 04:04:32;;;;;;;27.65;17.30;;;9.40;99.90;;;;;;4997198;28;20053;-86
2022/04/14 04:06:58;;;;;;;26.20;15.93;;;9.40;99.90;;;;;;4980829;28;20124;-86
2022/04/14 04:09:26;;;;;;;28.83;17.45;;;9.30;99.90;;;;;;4997488;28;20057;-87
2022/04/14 04:11:53;;;;;;;27.05;16.77;;;9.30;99.90;;;;;;5013388;28;20050;-86
2022/04/14 04:14:19;;;;;;;28.25;17.48;;;9.30;99.90;;;;;;4997806;28;20060;-87
2022/04/14 04:16:45;;;;;;;27.52;16.63;;;9.30;99.90;;;;;;4997411;28;20048;-86
2022/04/14 04:19:11;;;;;;;23.95;16.27;;;9.60;99.90;;;;;;4997579;28;20120;-86
2022/04/14 04:21:37;;;;;;;27.48;16.00;;;9.20;99.90;;;;;;4980906;28;20054;-88
2022/04/14 04:24:02;;;;;;;26.55;15.63;;;9.10;99.90;;;;;;5013363;28;20046;-87
2022/04/14 04:26:28;;;;;;;27.40;16.60;;;9.10;99.90;;;;;;4996795;28;20042;-87
2022/04/14 04:28:54;;;;;;;27.00;15.70;;;9.00;99.90;;;;;;4996942;28;20188;-86
2022/04/14 04:31:19;;;;;;;24.25;15.75;;;8.90;99.90;;;;;;5013489;28;20041;-85
2022/04/14 04:33:45;;;;;;;26.52;16.25;;;8.90;99.90;;;;;;4996982;28;20053;-87
2022/04/14 04:36:11;;;;;;;26.13;15.52;;;8.90;99.90;;;;;;4997622;28;20336;-86
2022/04/14 04:38:37;;;;;;;27.30;16.30;;;8.80;99.90;;;;;;4980336;28;20053;-86
2022/04/14 04:41:05;;;;;;;28.48;16.83;;;8.80;99.90;;;;;;5013918;28;20375;-86
2022/04/14 04:43:30;;;;;;;25.40;16.23;;;8.70;99.90;;;;;;5013242;28;20046;-86
2022/04/14 04:45:56;;;;;;;25.75;15.77;;;8.80;99.90;;;;;;4997407;28;20076;-87
2022/04/14 04:48:21;;;;;;;26.02;16.27;;;8.70;99.90;;;;;;4980767;28;20042;-86
2022/04/14 04:50:48;;;;;;;24.98;14.77;;;8.70;99.90;;;;;;4996345;28;20096;-87
2022/04/14 04:53:14;;;;;;;30.33;16.52;;;8.70;99.90;;;;;;4996726;28;20053;-87
2022/04/14 04:55:40;;;;;;;23.80;15.48;;;9.30;99.90;;;;;;5012544;28;20410;-87
2022/04/14 04:58:05;;;;;;;23.40;14.25;;;8.60;99.90;;;;;;4996246;28;20049;-87
2022/04/14 05:00:32;;;;;;;26.08;16.55;;;8.60;99.90;;;;;;4980297;28;20053;-86
2022/04/14 05:02:57;;;;;;;25.65;15.40;;;8.60;99.90;;;;;;4996498;28;20060;-86
2022/04/14 05:05:24;;;;;;;25.00;15.57;;;8.60;99.90;;;;;;4980261;28;20132;-86
2022/04/14 05:07:50;;;;;;;26.88;16.48;;;8.50;99.90;;;;;;4996437;28;20092;-86
2022/04/14 05:10:16;;;;;;;28.58;17.15;;;8.70;99.90;;;;;;5012418;28;20062;-86
2022/04/14 05:12:42;;;;;;;25.75;15.13;;;8.50;99.90;;;;;;4996425;28;20141;-86
2022/04/14 05:15:08;;;;;;;29.38;17.48;;;8.50;99.90;;;;;;5012755;28;20077;-86
2022/04/14 05:17:34;;;;;;;29.55;18.27;;;8.50;99.90;;;;;;4996248;28;20511;-86
2022/04/14 05:20:00;;;;;;;29.05;17.50;;;8.50;99.90;;;;;;5012509;28;20077;-86
2022/04/14 05:22:25;;;;;;;34.75;18.58;;;8.60;99.90;;;;;;4996344;28;20085;-85
2022/04/14 05:24:51;;;;;;;32.08;18.17;;;8.50;99.90;;;;;;5012652;28;20053;-86
2022/04/14 05:27:17;;;;;;;29.55;17.17;;;8.60;99.90;;;;;;5012581;28;20046;-87
2022/04/14 05:29:43;;;;;;;32.60;17.92;;;8.60;99.90;;;;;;5013044;28;20041;-86
2022/04/14 05:32:09;;;;;;;36.13;19.75;;;8.60;99.90;;;;;;5013329;28;20124;-84
2022/04/14 05:34:35;;;;;;;33.78;19.25;;;8.60;99.90;;;;;;4996313;28;20038;-84
2022/04/14 05:37:00;;;;;;;37.45;21.52;;;8.70;99.90;;;;;;5013183;28;20529;-85
2022/04/14 05:39:26;;;;;;;34.13;19.65;;;8.90;99.90;;;;;;4982532;28;20049;-85
2022/04/14 05:41:52;;;;;;;33.30;21.25;;;8.80;99.90;;;;;;5000829;28;20084;-86
2022/04/14 05:44:19;;;;;;;33.60;20.63;;;8.90;99.90;;;;;;5016254;28;20050;-87
2022/04/14 05:46:44;;;;;;;34.28;20.08;;;8.90;99.90;;;;;;5000810;28;20085;-85
2022/04/14 05:49:10;;;;;;;33.30;21.02;;;8.90;99.90;;;;;;5016163;28;20092;-87
2022/04/14 05:51:35;;;;;;;37.58;20.80;;;9.00;99.90;;;;;;4999395;28;20054;-86
2022/04/14 05:54:01;;;;;;;31.60;20.27;;;9.00;99.90;;;;;;4999761;28;20089;-87
2022/04/14 05:56:27;;;;;;;33.28;20.35;;;9.00;99.90;;;;;;5016122;28;20069;-86
2022/04/14 05:58:53;;;;;;;34.08;20.10;;;9.10;99.90;;;;;;4967101;28;20038;-87
2022/04/14 06:01:19;;;;;;;32.13;19.30;;;9.10;99.90;;;;;;5015964;28;20077;-86
2022/04/14 06:03:45;;;;;;;34.95;20.83;;;9.10;99.90;;;;;;5015635;28;20033;-86
2022/04/14 06:06:13;;;;;;;30.88;19.58;;;9.20;99.90;;;;;;5015931;28;20092;-86
2022/04/14 06:08:39;;;;;;;40.33;22.58;;;9.30;99.90;;;;;;4999477;28;20042;-86
2022/04/14 06:11:06;;;;;;;37.35;23.42;;;9.30;99.90;;;;;;5015759;28;20400;-88
2022/04/14 06:13:33;;;;;;;40.33;22.70;;;9.50;99.90;;;;;;4984039;28;20054;-87
2022/04/14 06:15:59;;;;;;;43.95;23.02;;;9.50;99.90;;;;;;4984452;28;20065;-82
2022/04/14 06:18:24;;;;;;;34.80;21.55;;;9.60;99.90;;;;;;5017437;28;20042;-85
2022/04/14 06:20:52;;;;;;;36.35;21.33;;;9.70;99.90;;;;;;5018061;28;20049;-85
2022/04/14 06:23:18;;;;;;;39.72;22.73;;;9.80;99.90;;;;;;5002406;28;20045;-85
2022/04/14 06:25:50;;;;;;;35.45;20.23;;;9.90;99.90;;;;;;4987823;28;20046;-86
2022/04/14 06:28:19;;;;;;;34.63;22.52;;;9.90;99.90;;;;;;4999900;28;20073;-86
2022/04/14 06:30:47;;;;;;;34.17;20.20;;;10.00;99.90;;;;;;4999250;28;20056;-86
2022/04/14 06:33:15;;;;;;;32.30;20.33;;;10.00;99.90;;;;;;5016079;28;20389;-86
2022/04/14 06:35:41;;;;;;;36.22;20.80;;;10.10;99.90;;;;;;5015056;28;20057;-86
2022/04/14 06:38:07;;;;;;;34.58;20.88;;;10.20;99.90;;;;;;5015060;28;20046;-86
2022/04/14 06:40:32;;;;;;;33.80;20.38;;;10.20;99.90;;;;;;5015969;28;20076;-87
2022/04/14 06:42:59;;;;;;;33.70;20.83;;;10.30;99.90;;;;;;4983030;28;20046;-86
2022/04/14 06:45:25;;;;;;;33.92;21.27;;;10.30;99.90;;;;;;5014809;28;20053;-86
2022/04/14 06:47:52;;;;;;;36.03;19.35;;;10.40;99.90;;;;;;5015069;28;20038;-86
2022/04/14 06:50:17;;;;;;;33.72;20.63;;;10.40;99.90;;;;;;5015175;28;20042;-87
2022/04/14 06:52:43;;;;;;;34.35;20.17;;;10.50;99.90;;;;;;4999095;28;20537;-86
2022/04/14 06:55:09;;;;;;;33.70;19.23;;;10.60;99.90;;;;;;4998574;28;20129;-87
2022/04/14 06:57:35;;;;;;;31.58;19.50;;;10.70;99.90;;;;;;5017015;28;20080;-86
2022/04/14 07:00:01;;;;;;;33.40;19.65;;;10.70;99.90;;;;;;4982438;28;20085;-86
2022/04/14 07:02:28;;;;;;;29.90;19.25;;;10.80;99.90;;;;;;4999227;28;20061;-86
2022/04/14 07:04:54;;;;;;;35.08;20.88;;;10.90;99.90;;;;;;4982010;28;20129;-86
2022/04/14 07:07:19;;;;;;;30.85;19.40;;;11.00;99.90;;;;;;5014945;28;20085;-85
2022/04/14 07:09:45;;;;;;;30.92;20.65;;;11.00;99.90;;;;;;5014896;28;20042;-86
2022/04/14 07:12:11;;;;;;;34.05;21.55;;;11.10;99.90;;;;;;4998136;28;20045;-84
2022/04/14 07:14:38;;;;;;;35.08;20.92;;;11.20;99.90;;;;;;5014549;28;20060;-86
2022/04/14 07:17:04;;;;;;;36.08;19.17;;;11.30;99.90;;;;;;4998818;28;20455;-85
2022/04/14 07:19:30;;;;;;;33.92;20.42;;;11.30;99.90;;;;;;5014295;28;20081;-85
2022/04/14 07:21:55;;;;;;;35.67;20.48;;;11.40;99.90;;;;;;5015375;28;20180;-86
2022/04/14 07:24:21;;;;;;;38.97;20.88;;;11.50;99.90;;;;;;5014277;28;20099;-85
2022/04/14 07:26:47;;;;;;;35.10;20.10;;;11.60;99.90;;;;;;5014242;28;20108;-85
2022/04/14 07:29:13;;;;;;;34.38;17.67;;;11.70;99.90;;;;;;4998205;28;20402;-86
2022/04/14 07:31:41;;;;;;;28.00;17.10;;;11.80;99.90;;;;;;5014049;28;20053;-88
2022/04/14 07:34:08;;;;;;;33.92;18.98;;;11.90;99.90;;;;;;5014066;28;20093;-88
2022/04/14 07:36:34;;;;;;;33.10;18.95;;;12.00;99.90;;;;;;5014478;28;20061;-87
2022/04/14 07:39:01;;;;;;;33.97;18.30;;;12.10;99.90;;;;;;4997654;28;20404;-87
2022/04/14 07:41:27;;;;;;;30.05;17.10;;;12.10;99.90;;;;;;5014027;28;20045;-87
2022/04/14 07:43:54;;;;;;;30.40;17.30;;;12.20;99.90;;;;;;4982568;28;20046;-88
2022/04/14 07:46:19;;;;;;;25.77;14.52;;;12.20;99.90;;;;;;4997587;28;20490;-85
2022/04/14 07:48:45;;;;;;;28.25;15.75;;;12.30;99.90;;;;;;5013807;28;20048;-84
2022/04/14 07:51:11;;;;;;;21.20;13.27;;;12.50;99.90;;;;;;5013543;28;20061;-85
2022/04/14 07:53:40;;;;;;;25.05;13.68;;;12.50;99.90;;;;;;5013573;28;20053;-85
2022/04/14 07:56:05;;;;;;;27.08;16.95;;;12.60;99.90;;;;;;4981570;28;20128;-85
2022/04/14 07:58:32;;;;;;;24.25;14.13;;;12.70;99.90;;;;;;5013492;28;20176;-85
2022/04/14 08:00:57;;;;;;;23.33;14.45;;;12.80;99.90;;;;;;4997178;28;20062;-85
2022/04/14 08:03:23;;;;;;;19.20;11.85;;;12.90;99.90;;;;;;4997755;28;20124;-84
2022/04/14 08:05:49;;;;;;;26.45;14.38;;;13.00;99.90;;;;;;5014358;28;20060;-85
2022/04/14 08:08:19;;;;;;;24.92;14.50;;;13.10;99.90;;;;;;4997091;28;20045;-85
2022/04/14 08:10:47;;;;;;;23.08;13.57;;;13.20;99.90;;;;;;5013136;28;20049;-86
2022/04/14 08:13:15;;;;;;;18.45;10.55;;;13.30;99.90;;;;;;5013653;28;20055;-84
2022/04/14 08:15:42;;;;;;;19.65;11.70;;;13.30;99.90;;;;;;5013214;28;20133;-85
2022/04/14 08:18:08;;;;;;;22.88;13.32;;;13.40;99.90;;;;;;5013421;28;20046;-84
2022/04/14 08:20:35;;;;;;;18.15;11.38;;;13.60;99.90;;;;;;4997077;28;20118;-84
2022/04/14 08:23:02;;;;;;;16.20;10.60;;;13.70;99.90;;;;;;5014263;28;20064;-84
2022/04/14 08:25:30;;;;;;;20.42;11.82;;;13.70;99.90;;;;;;5014972;28;20363;-84
2022/04/14 08:27:58;;;;;;;20.35;11.70;;;13.80;99.90;;;;;;5012974;28;20521;-86
2022/04/14 08:30:25;;;;;;;21.27;12.40;;;13.90;99.90;;;;;;5013178;28;20050;-84
2022/04/14 08:32:52;;;;;;;17.88;11.45;;;14.00;99.90;;;;;;5013064;28;20494;-86
2022/04/14 08:35:19;;;;;;;18.30;11.18;;;14.10;99.90;;;;;;5013343;28;20038;-87
2022/04/14 08:37:46;;;;;;;18.85;10.45;;;14.20;99.90;;;;;;5012534;28;20487;-87
2022/04/14 08:40:17;;;;;;;19.48;11.23;;;14.20;99.90;;;;;;5012666;28;20042;-84
2022/04/14 08:42:58;;;;;;;19.35;11.48;;;14.30;99.90;;;;;;5014599;28;20057;-85
2022/04/14 08:45:25;;;;;;;18.40;10.55;;;14.40;99.90;;;;;;5013325;28;20467;-87
2022/04/14 08:47:53;;;;;;;19.90;11.32;;;14.50;99.90;;;;;;5012888;28;20088;-85
2022/04/14 08:50:19;;;;;;;15.80;10.10;;;14.50;99.90;;;;;;4997168;28;20422;-83
2022/04/14 08:52:45;;;;;;;15.38;10.45;;;14.60;99.90;;;;;;5012114;28;20054;-86
2022/04/14 08:55:14;;;;;;;17.70;10.32;;;14.60;99.90;;;;;;4996839;28;20045;-87
2022/04/14 08:57:43;;;;;;;17.23;11.07;;;14.70;99.90;;;;;;5012616;28;20522;-85
2022/04/14 09:00:16;;;;;;;17.48;11.63;;;14.80;99.90;;;;;;5012755;28;20192;-84
2022/04/14 09:02:45;;;;;;;18.50;11.48;;;14.90;99.90;;;;;;5013366;28;20431;-84
2022/04/14 09:05:17;;;;;;;18.75;11.30;;;15.00;99.90;;;;;;4996710;28;20128;-84
2022/04/14 09:07:47;;;;;;;19.55;11.82;;;15.10;99.90;;;;;;4996695;28;20038;-84
2022/04/14 09:10:12;;;;;;;16.35;10.02;;;15.20;99.90;;;;;;5012721;28;20108;-83
2022/04/14 09:12:38;;;;;;;15.90;10.93;;;15.30;99.90;;;;;;4980832;28;20391;-85
2022/04/14 09:15:05;;;;;;;18.38;10.88;;;15.30;99.90;;;;;;5016787;28;20041;-87
2022/04/14 09:17:31;;;;;;;17.85;11.15;;;15.30;99.90;;;;;;5016607;28;20045;-84
2022/04/14 09:19:56;;;;;;;16.33;9.90;;;15.30;99.90;;;;;;5016765;28;20048;-88
2022/04/14 09:22:23;;;;;;;15.50;10.68;;;15.30;99.90;;;;;;4984222;28;20049;-83
2022/04/14 09:24:55;;;;;;;17.15;11.38;;;15.40;99.90;;;;;;4984229;28;20591;-85
2022/04/14 09:27:27;;;;;;;15.15;10.40;;;15.50;99.90;;;;;;5000127;28;20042;-85
2022/04/14 09:29:55;;;;;;;14.70;10.13;;;15.70;99.90;;;;;;5016413;28;20514;-85
2022/04/14 09:32:34;;;;;;;17.42;11.18;;;15.80;99.90;;;;;;5016293;28;20046;-84
2022/04/14 09:35:03;;;;;;;15.15;9.57;;;15.90;99.90;;;;;;5016340;28;20054;-84
2022/04/14 09:37:30;;;;;;;17.73;10.93;;;16.00;99.90;;;;;;5017462;28;20141;-85
2022/04/14 09:40:10;;;;;;;16.90;10.68;;;16.10;99.90;;;;;;4999530;28;20050;-84
2022/04/14 09:42:40;;;;;;;15.77;10.75;;;16.30;99.90;;;;;;5016227;28;20100;-84
2022/04/14 09:45:23;;;;;;;20.33;11.00;;;16.30;99.90;;;;;;5000065;28;20092;-83
2022/04/14 09:48:02;;;;;;;15.32;9.82;;;16.20;99.90;;;;;;5017021;28;20072;-83
2022/04/14 09:50:31;;;;;;;17.67;10.30;;;16.30;99.90;;;;;;5016321;28;20042;-84
2022/04/14 09:53:05;;;;;;;14.90;9.40;;;16.20;99.90;;;;;;5016083;28;20061;-86
2022/04/14 09:55:32;;;;;;;11.73;8.23;;;16.20;99.90;;;;;;5016073;28;20069;-84
2022/04/14 09:58:19;;;;;;;13.23;8.35;;;16.40;99.90;;;;;;5015961;28;20050;-82
2022/04/14 10:00:46;;;;;;;;;;;16.60;99.90;;;;;;5016556;28;20426;-83
2022/04/14 10:03:22;;;;;;;13.30;9.20;;;16.60;99.90;;;;;;5016275;28;19925;-81
2022/04/14 10:05:50;;;;;;;16.02;9.75;;;16.80;99.90;;;;;;5016564;28;20042;-83
2022/04/14 10:08:16;;;;;;;15.10;9.25;;;16.80;99.90;;;;;;5015755;28;20096;-83
2022/04/14 10:10:49;;;;;;;12.15;8.30;;;16.90;99.90;;;;;;5015647;28;20076;-83
2022/04/14 10:13:17;;;;;;;16.15;10.07;;;17.00;99.90;;;;;;5015913;28;20057;-83
2022/04/14 10:15:48;;;;;;;13.52;8.88;;;17.20;99.90;;;;;;4999940;28;20053;-83
2022/04/14 10:18:16;;;;;;;13.68;8.95;;;17.20;99.90;;;;;;5016250;28;20458;-83
2022/04/14 10:20:44;;;;;;;14.43;8.95;;;17.20;99.90;;;;;;5015803;28;20049;-82
2022/04/14 10:23:11;;;;;;;12.27;8.85;;;16.90;99.90;;;;;;5015765;28;20394;-82
2022/04/14 10:25:37;;;;;;;12.32;8.38;;;16.80;99.90;;;;;;5014574;28;20048;-83
2022/04/14 10:28:06;;;;;;;14.38;7.80;;;16.90;99.90;;;;;;5015417;28;20107;-83
2022/04/14 10:30:32;;;;;;;12.40;8.43;;;17.10;99.90;;;;;;4998489;28;20509;-83
2022/04/14 10:32:58;;;;;;;10.88;8.27;;;17.40;99.90;;;;;;5014825;28;20038;-81
2022/04/14 10:35:28;;;;;;;12.02;9.23;;;17.50;99.90;;;;;;5015985;28;20050;-84
2022/04/14 10:38:03;;;;;;;11.02;8.45;;;17.50;99.90;;;;;;5015397;28;20054;-81
2022/04/14 10:40:31;;;;;;;12.68;8.57;;;17.60;99.90;;;;;;4998813;28;20050;-81
2022/04/14 10:42:58;;;;;;;11.68;7.75;;;17.40;99.90;;;;;;5015158;28;20081;-81
2022/04/14 10:45:24;;;;;;;11.52;7.25;;;17.40;99.90;;;;;;5015181;28;20399;-81
2022/04/14 10:47:50;;;;;;;9.07;6.15;;;17.50;99.90;;;;;;4999312;28;20056;-81
2022/04/14 10:50:20;;;;;;;8.05;6.38;;;17.50;99.90;;;;;;5015174;28;20050;-81
2022/04/14 10:53:11;;;;;;;9.80;6.95;;;17.60;99.90;;;;;;5014866;28;20065;-84
2022/04/14 10:55:44;;;;;;;9.07;6.75;;;17.70;99.90;;;;;;4999353;28;20050;-82
2022/04/14 10:58:29;;;;;;;11.27;7.30;;;17.80;99.90;;;;;;5014616;28;20042;-81
2022/04/14 11:00:55;;;;;;;8.73;6.72;;;17.60;99.90;;;;;;5014775;28;20482;-81
2022/04/14 11:03:48;;;;;;;8.70;6.47;;;17.40;99.90;;;;;;5014776;28;20050;-83
2022/04/14 11:06:43;;;;;;;10.88;6.70;;;17.20;99.90;;;;;;5014735;28;20478;-80
2022/04/14 11:09:38;;;;;;;8.98;5.78;;;17.20;99.90;;;;;;4998471;28;20042;-82
2022/04/14 11:12:05;;;;;;;7.35;4.90;;;17.00;99.90;;;;;;5014558;28;20050;-82
2022/04/14 11:14:44;;;;;;;12.13;7.65;;;16.70;99.90;;;;;;4997873;28;20057;-80
2022/04/14 11:17:40;;;;;;;9.93;6.47;;;16.80;99.90;;;;;;5014148;28;20054;-85
2022/04/14 11:20:34;;;;;;;9.85;6.53;;;17.20;99.90;;;;;;5014381;28;20050;-84
2022/04/14 11:23:17;;;;;;;6.45;4.22;;;17.60;99.90;;;;;;4998228;28;20375;-83
2022/04/14 11:25:48;;;;;;;7.28;5.03;;;17.80;99.90;;;;;;5014084;28;20046;-81
2022/04/14 11:28:24;;;;;;;8.35;4.50;;;17.90;99.90;;;;;;5014284;28;20394;-83
2022/04/14 11:31:13;;;;;;;7.63;4.55;;;18.10;99.90;;;;;;5015293;28;20506;-81
2022/04/14 11:33:43;;;;;;;7.63;4.90;;;18.10;99.90;;;;;;5000908;28;20149;-83
2022/04/14 11:36:16;;;;;;;7.20;4.13;;;18.30;99.90;;;;;;5014843;28;20073;-84
2022/04/14 11:39:03;;;;;;;6.57;4.85;;;18.30;99.90;;;;;;5013882;28;20049;-85
2022/04/14 11:41:43;;;;;;;7.80;5.55;;;18.40;99.90;;;;;;5014076;28;20100;-84
2022/04/14 11:44:10;;;;;;;6.78;4.95;;;18.40;99.90;;;;;;5013927;28;20387;-85
2022/04/14 11:46:37;;;;;;;7.57;4.85;;;18.10;99.90;;;;;;5013939;28;20050;-84
2022/04/14 11:49:05;;;;;;;7.80;5.65;;;17.80;99.90;;;;;;4998226;28;20054;-85
2022/04/14 11:51:31;;;;;;;4.90;3.00;;;17.40;99.90;;;;;;5013203;28;20061;-83
2022/04/14 11:53:57;;;;;;;5.90;3.65;;;17.20;99.90;;;;;;5013855;28;20403;-85
2022/04/14 11:56:26;;;;;;;5.82;3.15;;;17.10;99.90;;;;;;5013687;28;20049;-84
2022/04/14 11:58:52;;;;;;;4.82;3.25;;;17.40;99.90;;;;;;4997254;28;20061;-82
2022/04/14 12:01:18;;;;;;;6.85;3.88;;;17.90;99.90;;;;;;5013588;28;20052;-82
2022/04/14 12:03:44;;;;;;;4.40;2.13;;;18.20;99.90;;;;;;5013589;28;20046;-83
2022/04/14 12:06:12;;;;;;;4.97;3.05;;;18.40;99.90;;;;;;5013452;28;20094;-84
2022/04/14 12:08:38;;;;;;;4.88;2.50;;;18.40;99.90;;;;;;5013545;28;20076;-82
2022/04/14 12:11:11;;;;;;;4.95;2.45;;;18.30;99.90;;;;;;5013564;28;20405;-84
2022/04/14 12:13:37;;;;;;;3.53;2.00;;;18.10;99.90;;;;;;5013682;28;20041;-80
2022/04/14 12:16:05;;;;;;;4.88;2.40;;;18.00;99.90;;;;;;5013372;28;20046;-82
2022/04/14 12:18:31;;;;;;;5.75;2.55;;;18.20;99.90;;;;;;5013321;28;20037;-84
2022/04/14 12:20:57;;;;;;;4.07;2.63;;;18.50;99.90;;;;;;5013080;28;20045;-84
2022/04/14 12:23:23;;;;;;;4.25;2.00;;;18.70;99.90;;;;;;5013454;28;20045;-84
2022/04/14 12:25:51;;;;;;;3.67;2.47;;;19.10;99.90;;;;;;5013096;28;20050;-84
2022/04/14 12:28:17;;;;;;;4.88;2.45;;;19.20;99.90;;;;;;4996672;28;20050;-84
2022/04/14 12:30:42;;;;;;;4.43;2.70;;;19.20;99.90;;;;;;5013300;28;20038;-83
2022/04/14 12:33:09;;;;;;;5.68;2.53;;;19.10;99.90;;;;;;5012892;28;20415;-82
2022/04/14 12:35:36;;;;;;;3.95;2.30;;;19.20;99.90;;;;;;5012938;28;20042;-83
2022/04/14 12:38:12;;;;;;;4.70;2.42;;;19.00;99.90;;;;;;5012866;28;20406;-84